createdAt,value
2018-06-17T00:02:12.059Z,1.47
2018-06-17T00:04:45.246Z,1.10
2018-06-17T00:07:18.296Z,0.93
2018-06-17T00:09:51.384Z,1.60
2018-06-17T00:12:24.487Z,1.20
2018-06-17T00:14:57.656Z,1.30
2018-06-17T00:17:30.894Z,1.20
2018-06-17T00:20:03.963Z,1.30
2018-06-17T00:22:36.986Z,1.17
2018-06-17T00:25:10.108Z,1.40
2018-06-17T00:27:43.306Z,1.40
2018-06-17T00:30:16.405Z,1.37
2018-06-17T00:32:49.476Z,1.00
2018-06-17T00:35:22.520Z,1.10
2018-06-17T00:37:55.603Z,1.27
2018-06-17T00:40:29.470Z,1.10
2018-06-17T00:43:02.628Z,1.10
2018-06-17T00:45:35.755Z,1.20
2018-06-17T00:48:08.865Z,1.60
2018-06-17T00:57:38.074Z,1.40
2018-06-17T01:00:11.756Z,1.37
2018-06-17T01:02:45.026Z,1.00
2018-06-17T01:05:18.915Z,1.10
2018-06-17T01:07:52.015Z,1.07
2018-06-17T01:10:25.125Z,1.13
2018-06-17T01:12:58.894Z,1.10
2018-06-17T01:15:32.177Z,1.07
2018-06-17T01:18:05.323Z,1.00
2018-06-17T01:20:39.532Z,1.13
2018-06-17T01:23:12.807Z,1.07
2018-06-17T01:25:46.755Z,1.07
2018-06-17T01:28:20.053Z,1.13
2018-06-17T01:30:53.347Z,0.93
2018-06-17T01:33:26.665Z,1.10
2018-06-17T01:36:00.460Z,1.20
2018-06-17T01:38:34.320Z,1.23
2018-06-17T01:41:07.724Z,1.10
2018-06-17T01:43:41.707Z,1.10
2018-06-17T01:46:15.003Z,1.20
2018-06-17T01:48:49.780Z,1.00
2018-06-17T01:51:23.127Z,1.00
2018-06-17T01:53:56.387Z,1.10
2018-06-17T01:56:29.828Z,1.10
2018-06-17T01:59:03.074Z,0.93
2018-06-17T02:01:37.040Z,1.10
2018-06-17T02:04:15.313Z,0.97
2018-06-17T02:06:52.989Z,0.90
2018-06-17T02:09:30.328Z,0.83
2018-06-17T02:12:18.856Z,1.07
2018-06-17T02:14:59.752Z,0.70
2018-06-17T02:17:33.307Z,0.67
2018-06-17T02:20:07.268Z,1.07
2018-06-17T02:22:40.520Z,1.00
2018-06-17T02:25:13.789Z,0.73
2018-06-17T02:27:47.101Z,1.00
2018-06-17T02:30:20.328Z,0.97
2018-06-17T02:32:53.629Z,0.83
2018-06-17T02:35:26.916Z,1.07
2018-06-17T02:38:00.228Z,0.90
2018-06-17T02:40:33.423Z,1.00
2018-06-17T02:43:06.617Z,1.17
2018-06-17T02:45:44.756Z,1.20
2018-06-17T02:48:22.098Z,1.40
2018-06-17T02:53:03.391Z,0.90
2018-06-17T02:55:36.567Z,1.83
2018-06-17T02:58:09.696Z,1.07
2018-06-17T03:00:43.684Z,1.13
2018-06-17T03:03:16.863Z,1.07
2018-06-17T03:05:50.016Z,1.10
2018-06-17T03:08:23.679Z,1.30
2018-06-17T03:10:56.822Z,0.93
2018-06-17T03:13:31.795Z,1.00
2018-06-17T03:16:05.489Z,1.20
2018-06-17T03:18:39.268Z,1.00
2018-06-17T03:21:12.366Z,1.00
2018-06-17T03:23:45.996Z,1.20
2018-06-17T03:26:23.223Z,1.20
2018-06-17T03:29:00.444Z,1.43
2018-06-17T03:31:37.494Z,1.30
2018-06-17T03:34:10.686Z,1.33
2018-06-17T03:36:43.823Z,1.03
2018-06-17T03:39:17.046Z,0.90
2018-06-17T03:41:50.100Z,1.37
2018-06-17T03:44:23.247Z,1.43
2018-06-17T03:46:56.358Z,1.00
2018-06-17T03:49:29.635Z,1.50
2018-06-17T03:52:02.755Z,1.33
2018-06-17T03:54:35.890Z,1.20
2018-06-17T03:57:09.015Z,1.40
2018-06-17T03:59:42.145Z,1.13
2018-06-17T04:02:15.298Z,2.23
2018-06-17T04:04:52.799Z,1.53
2018-06-17T04:07:25.888Z,1.93
2018-06-17T04:09:58.997Z,1.50
2018-06-17T04:12:32.819Z,1.53
2018-06-17T04:15:06.278Z,1.90
2018-06-17T04:17:39.755Z,1.30
2018-06-17T04:20:12.913Z,2.00
2018-06-17T04:22:46.028Z,2.00
2018-06-17T04:25:19.185Z,1.10
2018-06-17T04:27:52.339Z,1.40
2018-06-17T04:30:25.425Z,1.30
2018-06-17T04:32:58.461Z,1.27
2018-06-17T04:35:31.563Z,1.50
2018-06-17T04:38:04.665Z,1.33
2018-06-17T04:40:37.759Z,1.30
2018-06-17T04:43:10.951Z,1.00
2018-06-17T04:45:44.061Z,1.20
2018-06-17T04:48:17.176Z,1.10
2018-06-17T04:50:50.227Z,1.10
2018-06-17T04:53:23.360Z,1.17
2018-06-17T04:55:56.444Z,1.97
2018-06-17T04:58:29.556Z,1.90
2018-06-17T05:01:02.653Z,1.83
2018-06-17T05:03:36.068Z,1.80
2018-06-17T05:06:09.164Z,2.03
2018-06-17T05:08:42.228Z,1.90
2018-06-17T05:11:15.371Z,1.87
2018-06-17T05:13:48.527Z,1.83
2018-06-17T05:16:21.586Z,1.90
2018-06-17T05:18:54.706Z,2.00
2018-06-17T05:21:27.831Z,1.73
2018-06-17T05:24:00.942Z,2.03
2018-06-17T05:26:34.059Z,2.40
2018-06-17T05:29:07.169Z,2.60
2018-06-17T05:31:40.276Z,2.80
2018-06-17T05:34:13.452Z,2.80
2018-06-17T05:36:46.613Z,2.80
2018-06-17T05:39:19.696Z,3.37
2018-06-17T05:41:52.757Z,3.10
2018-06-17T05:44:25.808Z,2.60
2018-06-17T05:46:58.934Z,2.60
2018-06-17T05:49:32.015Z,2.50
2018-06-17T05:52:05.207Z,2.90
2018-06-17T05:54:39.136Z,3.10
2018-06-17T05:57:12.200Z,2.80
2018-06-17T05:59:45.291Z,2.77
2018-06-17T06:02:18.498Z,3.47
2018-06-17T06:04:51.577Z,2.80
2018-06-17T06:07:24.742Z,2.80
2018-06-17T06:09:57.955Z,3.10
2018-06-17T06:12:31.066Z,2.90
2018-06-17T06:15:04.595Z,2.83
2018-06-17T06:17:37.822Z,2.60
2018-06-17T06:20:12.844Z,2.70
2018-06-17T06:22:45.943Z,2.70
2018-06-17T06:25:19.068Z,2.67
2018-06-17T06:27:52.352Z,2.80
2018-06-17T06:30:25.444Z,2.50
2018-06-17T06:32:58.781Z,2.70
2018-06-17T06:35:32.360Z,2.40
2018-06-17T06:38:05.493Z,2.37
2018-06-17T06:40:38.710Z,2.80
2018-06-17T06:43:11.900Z,3.10
2018-06-17T06:45:45.081Z,3.03
2018-06-17T06:48:18.354Z,2.57
2018-06-17T06:50:51.459Z,1.70
2018-06-17T06:53:24.505Z,2.87
2018-06-17T06:55:57.548Z,2.47
2018-06-17T06:58:30.704Z,2.47
2018-06-17T07:01:03.828Z,2.97
2018-06-17T07:03:45.688Z,3.00
2018-06-17T07:06:27.541Z,2.90
2018-06-17T07:11:14.781Z,2.87
2018-06-17T07:13:47.911Z,3.20
2018-06-17T07:16:29.796Z,3.10
2018-06-17T07:19:02.822Z,3.50
2018-06-17T07:21:35.935Z,2.97
2018-06-17T07:24:09.088Z,2.83
2018-06-17T07:26:52.353Z,3.30
2018-06-17T07:29:35.392Z,3.23
2018-06-17T07:32:08.571Z,2.77
2018-06-17T07:34:42.874Z,3.13
2018-06-17T07:37:15.926Z,2.93
2018-06-17T07:40:28.525Z,3.63
2018-06-17T07:43:02.131Z,3.33
2018-06-17T15:45:30.687Z,1.70
2018-06-17T15:48:03.554Z,1.50
2018-06-17T15:50:36.428Z,2.30
2018-06-17T15:53:09.455Z,2.30
2018-06-17T15:55:42.374Z,1.80
2018-06-17T15:58:15.308Z,2.20
2018-06-17T16:00:48.209Z,1.73
2018-06-17T16:03:21.202Z,1.93
2018-06-17T16:05:54.151Z,1.80
2018-06-17T16:08:27.190Z,1.80
2018-06-17T16:11:00.133Z,1.87
2018-06-17T16:13:37.082Z,1.90
2018-06-17T16:16:14.127Z,1.63
2018-06-17T16:18:51.067Z,1.80
2018-06-17T16:21:24.072Z,2.13
2018-06-17T16:23:57.046Z,1.80
2018-06-17T16:26:30.013Z,1.70
2018-06-17T16:29:03.290Z,1.40
2018-06-17T16:31:36.345Z,1.73
2018-06-17T16:34:09.316Z,1.60
2018-06-17T16:36:42.994Z,1.40
2018-06-17T16:39:15.978Z,1.50
2018-06-17T16:41:49.906Z,1.30
2018-06-17T16:44:22.736Z,1.90
2018-06-17T16:46:55.728Z,1.30
2018-06-17T16:49:28.601Z,1.30
2018-06-17T16:52:05.668Z,1.30
2018-06-17T16:54:42.590Z,1.60
2018-06-17T16:57:19.712Z,1.43
2018-06-17T17:00:07.942Z,1.20
2018-06-17T17:02:40.876Z,1.30
2018-06-17T17:05:13.982Z,1.20
2018-06-17T17:07:47.502Z,1.30
2018-06-17T17:10:22.298Z,1.10
2018-06-17T17:12:55.322Z,1.07
2018-06-17T17:15:28.180Z,1.40
2018-06-17T17:18:01.269Z,1.20
2018-06-17T17:20:34.361Z,1.20
2018-06-17T17:23:07.595Z,1.10
2018-06-17T17:25:40.538Z,1.10
2018-06-17T17:28:13.543Z,1.03
2018-06-17T17:30:51.481Z,1.00
2018-06-17T17:33:28.480Z,1.00
2018-06-17T17:36:05.607Z,1.10
2018-06-17T17:38:42.891Z,1.10
2018-06-17T17:41:15.908Z,0.90
2018-06-17T17:43:49.247Z,1.10
2018-06-17T17:46:26.517Z,0.90
2018-06-17T17:48:59.479Z,0.90
2018-06-17T17:51:32.496Z,0.80
2018-06-17T17:54:05.511Z,0.90
2018-06-17T17:56:39.094Z,0.80
2018-06-17T17:59:12.532Z,0.90
2018-06-17T18:01:45.471Z,1.00
2018-06-17T18:04:18.465Z,0.90
2018-06-17T18:06:51.399Z,0.97
2018-06-17T18:09:24.475Z,0.93
2018-06-17T18:11:57.444Z,0.83
2018-06-17T18:14:30.688Z,1.10
2018-06-17T18:17:03.941Z,0.70
2018-06-17T18:19:36.896Z,0.90
2018-06-17T18:22:09.817Z,1.10
2018-06-17T18:24:42.680Z,1.10
2018-06-17T18:27:19.669Z,0.97
2018-06-17T18:29:56.812Z,0.97
2018-06-17T18:32:33.951Z,1.10
2018-06-17T18:35:10.953Z,0.80
2018-06-17T18:37:44.789Z,1.17
2018-06-17T18:40:17.790Z,0.90
2018-06-17T18:42:50.688Z,1.03
2018-06-17T18:45:24.577Z,1.27
2018-06-17T18:47:57.460Z,1.17
2018-06-17T18:50:30.457Z,0.90
2018-06-17T18:53:03.392Z,1.10
2018-06-17T18:55:36.304Z,1.00
2018-06-17T18:58:09.412Z,1.17
2018-06-17T19:00:44.006Z,1.10
2018-06-17T19:03:17.090Z,1.20
2018-06-17T19:05:50.072Z,1.10
2018-06-17T19:08:27.099Z,1.10
2018-06-17T19:11:04.096Z,1.10
2018-06-17T19:13:41.136Z,1.07
2018-06-17T19:16:19.198Z,1.00
2018-06-17T19:18:52.198Z,1.30
2018-06-17T19:21:25.241Z,1.47
2018-06-17T19:23:58.240Z,1.00
2018-06-17T19:26:31.199Z,1.00
2018-06-17T19:29:04.145Z,0.80
2018-06-17T19:31:37.021Z,1.00
2018-06-17T19:34:10.274Z,1.03
2018-06-17T19:36:43.093Z,1.10
2018-06-17T19:39:15.996Z,1.17
2018-06-17T19:41:48.934Z,1.23
2018-06-17T19:44:21.945Z,1.23
2018-06-17T19:46:55.102Z,1.07
2018-06-17T19:49:32.470Z,1.20
2018-06-17T19:52:09.727Z,1.30
2018-06-17T19:54:46.755Z,1.57
2018-06-17T19:57:23.824Z,1.27
2018-06-17T20:00:00.785Z,1.20
2018-06-17T20:02:33.672Z,1.03
2018-06-17T20:05:06.723Z,1.20
2018-06-17T20:07:39.700Z,1.20
2018-06-17T20:10:12.775Z,1.30
2018-06-17T20:12:45.829Z,1.40
2018-06-17T20:15:19.159Z,1.30
2018-06-17T20:17:52.198Z,1.30
2018-06-17T20:20:25.427Z,1.30
2018-06-17T20:22:58.616Z,1.40
2018-06-17T20:25:31.672Z,1.10
2018-06-17T20:28:05.014Z,1.20
2018-06-17T20:30:37.919Z,1.40
2018-06-17T20:33:15.004Z,1.03
2018-06-17T20:35:52.479Z,1.17
2018-06-17T20:38:29.813Z,1.20
2018-06-17T20:41:06.794Z,1.00
2018-06-17T20:43:44.339Z,1.27
2018-06-17T20:46:17.365Z,0.90
2018-06-17T20:48:51.183Z,1.10
2018-06-17T20:51:25.162Z,1.43
2018-06-17T20:53:58.025Z,1.43
2018-06-17T20:56:31.510Z,1.47
2018-06-17T20:59:04.584Z,1.30
2018-06-17T21:01:37.825Z,1.17
2018-06-17T21:04:10.747Z,1.30
2018-06-17T21:06:44.326Z,1.20
2018-06-17T21:09:17.418Z,1.00
2018-06-17T21:11:50.315Z,1.10
2018-06-17T21:14:24.611Z,1.10
2018-06-17T21:16:57.903Z,1.33
2018-06-17T21:19:35.072Z,1.30
2018-06-17T21:22:12.246Z,1.10
2018-06-17T21:24:49.227Z,1.07
2018-06-17T21:27:26.232Z,0.90
2018-06-17T21:29:59.472Z,1.27
2018-06-17T21:32:32.409Z,1.10
2018-06-17T21:35:05.434Z,0.97
2018-06-17T21:37:38.425Z,0.90
2018-06-17T21:40:11.337Z,0.97
2018-06-17T21:42:44.628Z,1.30
2018-06-17T21:45:17.570Z,1.20
2018-06-17T21:47:50.738Z,1.47
2018-06-17T21:50:23.754Z,1.33
2018-06-17T21:52:56.763Z,1.60
2018-06-17T21:55:29.694Z,1.50
2018-06-17T21:58:02.830Z,3.27
2018-06-17T22:00:35.705Z,1.90
2018-06-17T22:03:29.398Z,1.40
2018-06-17T22:06:07.574Z,2.00
2018-06-17T22:08:59.386Z,1.27
2018-06-17T22:11:36.336Z,1.30
2018-06-17T22:14:13.451Z,1.37
2018-06-17T22:16:50.478Z,1.30
2018-06-17T22:19:23.514Z,1.50
2018-06-17T22:21:56.471Z,2.37
2018-06-17T22:24:29.497Z,1.23
2018-06-17T22:27:02.769Z,5.00
2018-06-17T22:29:35.818Z,1.70
2018-06-17T22:32:08.805Z,1.40
2018-06-17T22:34:42.068Z,1.70
2018-06-17T22:37:14.985Z,1.67
2018-06-17T22:39:48.030Z,1.50
2018-06-17T22:42:21.077Z,1.30
2018-06-17T22:44:54.130Z,1.40
2018-06-17T22:47:31.119Z,1.50
2018-06-17T22:50:04.137Z,1.47
2018-06-17T22:52:45.471Z,1.40
2018-06-17T22:55:18.409Z,1.37
2018-06-17T22:57:55.359Z,1.50
2018-06-17T23:00:32.472Z,1.10
2018-06-17T23:03:09.996Z,1.17
2018-06-17T23:05:47.033Z,1.20
2018-06-17T23:08:24.151Z,1.23
2018-06-17T23:10:57.110Z,1.30
2018-06-17T23:13:29.971Z,1.27
2018-06-17T23:16:02.963Z,1.30
2018-06-17T23:18:35.984Z,1.30
2018-06-17T23:21:08.950Z,1.30
2018-06-17T23:23:41.861Z,1.50
2018-06-17T23:26:14.834Z,1.40
2018-06-17T23:28:47.851Z,1.27
2018-06-17T23:31:20.941Z,1.13
2018-06-17T23:33:53.875Z,1.30
2018-06-17T23:36:27.291Z,1.50
2018-06-17T23:39:00.157Z,1.47
2018-06-17T23:41:33.538Z,1.20
2018-06-17T23:44:06.423Z,1.40
2018-06-17T23:46:43.343Z,1.50
2018-06-17T23:49:21.176Z,1.30
2018-06-17T23:51:58.069Z,1.20
2018-06-17T23:54:35.075Z,1.50
2018-06-17T23:57:08.063Z,1.20
2018-06-17T23:59:41.033Z,1.30
